Ryegate Corner, Vermont
Current Conditions -  °F | °C
As of 10:51 AM on Wednesday 26 Nov 2014 (Local Time) from KMPV Reporting Station
Overcast Overcast  
Wind Chill: 32°   Ceiling: 8500
Heat Index: 32°   Visibility: 10mi
Dew Point: 22°   Wind: 3mph
Humidity: 66%   Direction: 30°NNE
Pressure: 30.2"   Gusts: NA
Location:  44.1959°N, 72.0788°W
Report Text: KMPV 261551Z AUTO 03003KT 10SM FEW070 BKN085 OVC100 00/M06 A3020 RMK AO2 SLP239 T00001056
Loading
Personal Weather Stations






























Interactive Weather Map New forecast layout! Learn more

10-Day Weather Forecast

Advertisements
Track Severe Weather on mobile